sensor_id;sensor_type;location;lat;lon;timestamp;pressure;altitude;pressure_sealevel;temperature;humidity
48926;BME280;39838;59.938;30.642;2023-02-19T00:01:06;98320.34;;;-3.79;67.27
48926;BME280;39838;59.938;30.642;2023-02-19T00:03:33;98321.25;;;-3.77;66.64
48926;BME280;39838;59.938;30.642;2023-02-19T00:06:03;98319.47;;;-3.80;66.94
48926;BME280;39838;59.938;30.642;2023-02-19T00:08:30;98322.03;;;-3.80;66.78
48926;BME280;39838;59.938;30.642;2023-02-19T00:11:01;98325.34;;;-3.82;67.32
48926;BME280;39838;59.938;30.642;2023-02-19T00:13:28;98322.94;;;-3.78;66.80
48926;BME280;39838;59.938;30.642;2023-02-19T00:15:56;98313.63;;;-3.77;66.67
48926;BME280;39838;59.938;30.642;2023-02-19T00:18:23;98316.03;;;-3.83;66.51
48926;BME280;39838;59.938;30.642;2023-02-19T00:20:50;98317.56;;;-3.92;66.64
48926;BME280;39838;59.938;30.642;2023-02-19T00:23:19;98320.13;;;-3.90;67.05
48926;BME280;39838;59.938;30.642;2023-02-19T00:25:46;98315.91;;;-3.90;67.50
48926;BME280;39838;59.938;30.642;2023-02-19T00:28:13;98312.66;;;-3.84;67.69
48926;BME280;39838;59.938;30.642;2023-02-19T00:30:40;98325.34;;;-3.84;67.58
48926;BME280;39838;59.938;30.642;2023-02-19T00:33:08;98304.22;;;-3.81;68.21
48926;BME280;39838;59.938;30.642;2023-02-19T00:35:35;98313.72;;;-3.73;68.24
48926;BME280;39838;59.938;30.642;2023-02-19T00:38:02;98310.41;;;-3.70;67.52
48926;BME280;39838;59.938;30.642;2023-02-19T00:40:31;98307.88;;;-3.70;67.71
48926;BME280;39838;59.938;30.642;2023-02-19T00:42:58;98301.13;;;-3.68;67.79
48926;BME280;39838;59.938;30.642;2023-02-19T00:45:25;98299.47;;;-3.66;68.15
48926;BME280;39838;59.938;30.642;2023-02-19T00:47:52;98299.59;;;-3.62;67.59
48926;BME280;39838;59.938;30.642;2023-02-19T00:50:20;98299.59;;;-3.60;67.62
48926;BME280;39838;59.938;30.642;2023-02-19T00:52:47;98300.47;;;-3.60;67.76
48926;BME280;39838;59.938;30.642;2023-02-19T00:55:14;98296.13;;;-3.65;67.57
48926;BME280;39838;59.938;30.642;2023-02-19T00:57:43;98295.22;;;-3.69;67.88
48926;BME280;39838;59.938;30.642;2023-02-19T01:00:11;98295.19;;;-3.70;68.15
48926;BME280;39838;59.938;30.642;2023-02-19T01:02:38;98293.41;;;-3.73;68.23
48926;BME280;39838;59.938;30.642;2023-02-19T01:05:05;98288.19;;;-3.80;68.02
48926;BME280;39838;59.938;30.642;2023-02-19T01:07:34;98295.75;;;-3.82;68.23
48926;BME280;39838;59.938;30.642;2023-02-19T01:10:01;98289.00;;;-3.81;68.97
48926;BME280;39838;59.938;30.642;2023-02-19T01:12:29;98284.81;;;-3.79;68.62
48926;BME280;39838;59.938;30.642;2023-02-19T01:14:57;98283.09;;;-3.80;68.64
48926;BME280;39838;59.938;30.642;2023-02-19T01:17:24;98288.97;;;-3.85;68.79
48926;BME280;39838;59.938;30.642;2023-02-19T01:19:51;98294.06;;;-3.83;69.11
48926;BME280;39838;59.938;30.642;2023-02-19T01:22:19;98287.16;;;-3.89;69.01
48926;BME280;39838;59.938;30.642;2023-02-19T01:24:46;98285.50;;;-3.87;68.74
48926;BME280;39838;59.938;30.642;2023-02-19T01:27:13;98286.38;;;-3.86;68.99
48926;BME280;39838;59.938;30.642;2023-02-19T01:29:41;98288.00;;;-3.88;69.05
48926;BME280;39838;59.938;30.642;2023-02-19T01:32:10;98282.88;;;-3.91;69.27
48926;BME280;39838;59.938;30.642;2023-02-19T01:34:37;98287.88;;;-3.94;69.13
48926;BME280;39838;59.938;30.642;2023-02-19T01:37:04;98285.19;;;-4.00;69.31
48926;BME280;39838;59.938;30.642;2023-02-19T01:39:35;98287.72;;;-4.02;69.51
48926;BME280;39838;59.938;30.642;2023-02-19T01:42:03;98272.38;;;-4.06;69.61
48926;BME280;39838;59.938;30.642;2023-02-19T01:47:58;98277.66;;;-3.99;69.71
48926;BME280;39838;59.938;30.642;2023-02-19T01:50:29;98273.28;;;-4.06;69.59
48926;BME280;39838;59.938;30.642;2023-02-19T01:53:00;98263.19;;;-4.03;70.10
48926;BME280;39838;59.938;30.642;2023-02-19T01:55:30;98273.47;;;-3.97;69.55
48926;BME280;39838;59.938;30.642;2023-02-19T01:57:59;98269.25;;;-3.95;69.62
48926;BME280;39838;59.938;30.642;2023-02-19T02:00:27;98265.13;;;-3.91;69.67
48926;BME280;39838;59.938;30.642;2023-02-19T02:02:57;98262.63;;;-3.90;69.34
48926;BME280;39838;59.938;30.642;2023-02-19T02:05:38;98254.97;;;-3.91;69.62
48926;BME280;39838;59.938;30.642;2023-02-19T02:08:07;98270.97;;;-3.94;69.81
48926;BME280;39838;59.938;30.642;2023-02-19T02:10:53;98256.44;;;-4.01;69.90
48926;BME280;39838;59.938;30.642;2023-02-19T02:13:22;98253.97;;;-3.99;69.80
48926;BME280;39838;59.938;30.642;2023-02-19T02:16:24;98259.78;;;-4.03;69.64
48926;BME280;39838;59.938;30.642;2023-02-19T02:19:00;98261.22;;;-4.15;69.40
48926;BME280;39838;59.938;30.642;2023-02-19T02:21:52;98264.47;;;-4.20;70.23
48926;BME280;39838;59.938;30.642;2023-02-19T02:24:40;98262.00;;;-4.19;70.24
48926;BME280;39838;59.938;30.642;2023-02-19T02:27:29;98254.41;;;-4.17;69.98
48926;BME280;39838;59.938;30.642;2023-02-19T02:30:27;98253.72;;;-4.10;70.34
48926;BME280;39838;59.938;30.642;2023-02-19T02:33:03;98251.22;;;-4.08;69.93
48926;BME280;39838;59.938;30.642;2023-02-19T02:35:33;98260.53;;;-4.07;70.08
48926;BME280;39838;59.938;30.642;2023-02-19T02:38:04;98257.97;;;-4.09;69.63
48926;BME280;39838;59.938;30.642;2023-02-19T02:40:35;98245.97;;;-4.16;69.52
48926;BME280;39838;59.938;30.642;2023-02-19T02:43:04;98257.09;;;-4.09;69.85
48926;BME280;39838;59.938;30.642;2023-02-19T02:45:33;98254.69;;;-4.05;70.22
48926;BME280;39838;59.938;30.642;2023-02-19T02:48:21;98249.63;;;-4.05;69.95
48926;BME280;39838;59.938;30.642;2023-02-19T02:50:53;98244.44;;;-4.09;70.19
48926;BME280;39838;59.938;30.642;2023-02-19T02:53:25;98241.03;;;-4.10;69.95
48926;BME280;39838;59.938;30.642;2023-02-19T02:56:11;98244.38;;;-4.13;70.41
48926;BME280;39838;59.938;30.642;2023-02-19T02:58:40;98245.25;;;-4.10;70.44
48926;BME280;39838;59.938;30.642;2023-02-19T03:01:12;98246.13;;;-4.10;70.40
48926;BME280;39838;59.938;30.642;2023-02-19T03:04:01;98240.19;;;-4.10;70.40
48926;BME280;39838;59.938;30.642;2023-02-19T03:06:30;98193.00;;;-4.42;70.21
48926;BME280;39838;59.938;30.642;2023-02-19T03:09:07;98240.09;;;-4.14;70.13
48926;BME280;39838;59.938;30.642;2023-02-19T03:11:39;98228.91;;;-4.23;70.24
48926;BME280;39838;59.938;30.642;2023-02-19T03:14:30;98226.25;;;-4.28;70.35
48926;BME280;39838;59.938;30.642;2023-02-19T03:17:21;98245.88;;;-4.21;70.45
48926;BME280;39838;59.938;30.642;2023-02-19T03:20:11;98240.06;;;-4.17;70.73
48926;BME280;39838;59.938;30.642;2023-02-19T03:22:41;98241.00;;;-4.13;70.47
48926;BME280;39838;59.938;30.642;2023-02-19T03:25:13;98207.69;;;-4.27;70.37
48926;BME280;39838;59.938;30.642;2023-02-19T03:28:01;98232.47;;;-4.15;70.32
48926;BME280;39838;59.938;30.642;2023-02-19T03:30:32;98211.09;;;-4.26;70.20
48926;BME280;39838;59.938;30.642;2023-02-19T03:33:04;98229.06;;;-4.16;70.31
48926;BME280;39838;59.938;30.642;2023-02-19T03:35:35;98235.97;;;-4.10;70.02
48926;BME280;39838;59.938;30.642;2023-02-19T03:38:08;98231.78;;;-4.08;70.41
48926;BME280;39838;59.938;30.642;2023-02-19T03:40:52;98246.16;;;-4.07;69.77
48926;BME280;39838;59.938;30.642;2023-02-19T03:43:25;98236.78;;;-4.11;70.04
48926;BME280;39838;59.938;30.642;2023-02-19T03:46:04;98241.75;;;-4.16;69.82
48926;BME280;39838;59.938;30.642;2023-02-19T03:48:34;98244.25;;;-4.17;69.97
48926;BME280;39838;59.938;30.642;2023-02-19T03:51:14;98242.59;;;-4.15;69.71
48926;BME280;39838;59.938;30.642;2023-02-19T03:53:51;98235.72;;;-4.21;70.46
48926;BME280;39838;59.938;30.642;2023-02-19T03:56:25;98239.19;;;-4.17;70.62
48926;BME280;39838;59.938;30.642;2023-02-19T03:58:57;98239.19;;;-4.17;70.30
48926;BME280;39838;59.938;30.642;2023-02-19T04:01:29;98234.03;;;-4.20;70.06
48926;BME280;39838;59.938;30.642;2023-02-19T04:04:05;98237.41;;;-4.21;70.25
48926;BME280;39838;59.938;30.642;2023-02-19T04:06:34;98233.94;;;-4.26;70.32
48926;BME280;39838;59.938;30.642;2023-02-19T04:09:06;98234.88;;;-4.21;70.28
48926;BME280;39838;59.938;30.642;2023-02-19T04:11:35;98233.25;;;-4.19;70.29
48926;BME280;39838;59.938;30.642;2023-02-19T04:14:07;98234.03;;;-4.20;70.11
48926;BME280;39838;59.938;30.642;2023-02-19T04:16:38;98233.13;;;-4.24;70.51
48926;BME280;39838;59.938;30.642;2023-02-19T04:19:11;98211.59;;;-4.41;70.34
48926;BME280;39838;59.938;30.642;2023-02-19T04:21:40;98232.88;;;-4.34;70.61
48926;BME280;39838;59.938;30.642;2023-02-19T04:24:12;98226.19;;;-4.32;71.03
48926;BME280;39838;59.938;30.642;2023-02-19T04:26:40;98234.69;;;-4.29;71.31
48926;BME280;39838;59.938;30.642;2023-02-19T04:29:08;98237.25;;;-4.27;71.59
48926;BME280;39838;59.938;30.642;2023-02-19T04:31:35;98224.56;;;-4.29;71.00
48926;BME280;39838;59.938;30.642;2023-02-19T04:34:04;98234.72;;;-4.27;71.59
48926;BME280;39838;59.938;30.642;2023-02-19T04:36:33;98225.41;;;-4.28;71.22
48926;BME280;39838;59.938;30.642;2023-02-19T04:39:00;98233.03;;;-4.27;71.35
48926;BME280;39838;59.938;30.642;2023-02-19T04:41:27;98227.19;;;-4.24;71.40
48926;BME280;39838;59.938;30.642;2023-02-19T04:43:54;98225.56;;;-4.21;71.21
48926;BME280;39838;59.938;30.642;2023-02-19T04:46:21;98224.84;;;-4.17;71.51
48926;BME280;39838;59.938;30.642;2023-02-19T04:48:48;98228.22;;;-4.16;70.80
48926;BME280;39838;59.938;30.642;2023-02-19T04:51:16;98227.38;;;-4.17;70.98
48926;BME280;39838;59.938;30.642;2023-02-19T04:53:44;98228.97;;;-4.20;71.00
48926;BME280;39838;59.938;30.642;2023-02-19T04:56:14;98215.28;;;-4.28;71.33
48926;BME280;39838;59.938;30.642;2023-02-19T04:58:42;98226.38;;;-4.23;70.98
48926;BME280;39838;59.938;30.642;2023-02-19T05:01:10;98231.47;;;-4.22;71.04
48926;BME280;39838;59.938;30.642;2023-02-19T05:03:37;98222.13;;;-4.24;71.12
48926;BME280;39838;59.938;30.642;2023-02-19T05:06:06;98232.38;;;-4.20;71.30
48926;BME280;39838;59.938;30.642;2023-02-19T05:08:34;98223.97;;;-4.17;70.62
48926;BME280;39838;59.938;30.642;2023-02-19T05:11:04;98230.72;;;-4.19;70.81
48926;BME280;39838;59.938;30.642;2023-02-19T05:13:32;98230.59;;;-4.24;70.92
48926;BME280;39838;59.938;30.642;2023-02-19T05:16:01;98220.34;;;-4.28;71.34
48926;BME280;39838;59.938;30.642;2023-02-19T05:18:29;98236.47;;;-4.26;70.91
48926;BME280;39838;59.938;30.642;2023-02-19T05:20:57;98218.63;;;-4.29;71.50
48926;BME280;39838;59.938;30.642;2023-02-19T05:23:24;98225.53;;;-4.24;71.04
48926;BME280;39838;59.938;30.642;2023-02-19T05:25:52;98236.47;;;-4.26;71.00
48926;BME280;39838;59.938;30.642;2023-02-19T05:28:21;98242.41;;;-4.24;70.75
48926;BME280;39838;59.938;30.642;2023-02-19T05:30:54;98212.53;;;-4.37;70.96
48926;BME280;39838;59.938;30.642;2023-02-19T05:33:23;98222.97;;;-4.25;70.77
48926;BME280;39838;59.938;30.642;2023-02-19T05:35:52;98231.28;;;-4.31;70.84
48926;BME280;39838;59.938;30.642;2023-02-19T05:38:20;98233.03;;;-4.27;71.22
48926;BME280;39838;59.938;30.642;2023-02-19T05:40:48;98233.94;;;-4.26;70.55
48926;BME280;39838;59.938;30.642;2023-02-19T05:43:16;98231.41;;;-4.26;70.65
48926;BME280;39838;59.938;30.642;2023-02-19T05:45:44;98239.09;;;-4.20;70.73
48926;BME280;39838;59.938;30.642;2023-02-19T05:48:11;98239.06;;;-4.23;70.69
48926;BME280;39838;59.938;30.642;2023-02-19T05:50:38;98241.47;;;-4.28;71.42
48926;BME280;39838;59.938;30.642;2023-02-19T05:53:05;98246.69;;;-4.22;71.57
48926;BME280;39838;59.938;30.642;2023-02-19T05:55:34;98249.31;;;-4.19;71.21
48926;BME280;39838;59.938;30.642;2023-02-19T05:58:02;98247.69;;;-4.15;71.30
48926;BME280;39838;59.938;30.642;2023-02-19T06:00:30;98247.78;;;-4.10;71.25
48926;BME280;39838;59.938;30.642;2023-02-19T06:03:00;98249.50;;;-4.09;71.20
48926;BME280;39838;59.938;30.642;2023-02-19T06:05:27;98246.16;;;-4.07;70.99
48926;BME280;39838;59.938;30.642;2023-02-19T06:07:54;98248.00;;;-4.00;70.93
48926;BME280;39838;59.938;30.642;2023-02-19T06:10:21;98249.66;;;-4.02;70.96
48926;BME280;39838;59.938;30.642;2023-02-19T06:12:51;98247.13;;;-4.02;71.12
48926;BME280;39838;59.938;30.642;2023-02-19T06:15:18;98237.69;;;-4.07;71.24
48926;BME280;39838;59.938;30.642;2023-02-19T06:17:46;98251.38;;;-4.01;71.75
48926;BME280;39838;59.938;30.642;2023-02-19T06:20:14;98246.25;;;-4.04;70.99
48926;BME280;39838;59.938;30.642;2023-02-19T06:22:41;98245.31;;;-4.07;71.02
48926;BME280;39838;59.938;30.642;2023-02-19T06:25:09;98246.38;;;-3.98;71.32
48926;BME280;39838;59.938;30.642;2023-02-19T06:27:38;98240.59;;;-3.92;71.01
48926;BME280;39838;59.938;30.642;2023-02-19T06:30:07;98243.19;;;-3.88;70.73
48926;BME280;39838;59.938;30.642;2023-02-19T06:32:34;98240.75;;;-3.85;70.72
48926;BME280;39838;59.938;30.642;2023-02-19T06:35:01;98241.63;;;-3.82;70.81
48926;BME280;39838;59.938;30.642;2023-02-19T06:37:31;98241.63;;;-3.82;70.99
48926;BME280;39838;59.938;30.642;2023-02-19T06:39:58;98237.56;;;-3.74;71.16
48926;BME280;39838;59.938;30.642;2023-02-19T06:42:25;98231.78;;;-3.67;70.91
48926;BME280;39838;59.938;30.642;2023-02-19T06:44:52;98245.31;;;-3.68;70.79
48926;BME280;39838;59.938;30.642;2023-02-19T06:47:19;98237.69;;;-3.68;70.39
48926;BME280;39838;59.938;30.642;2023-02-19T06:49:46;98244.69;;;-3.58;70.74
48926;BME280;39838;59.938;30.642;2023-02-19T06:52:13;98241.44;;;-3.49;70.72
48926;BME280;39838;59.938;30.642;2023-02-19T06:54:42;98235.63;;;-3.44;70.49
48926;BME280;39838;59.938;30.642;2023-02-19T06:57:09;98240.75;;;-3.41;70.15
48926;BME280;39838;59.938;30.642;2023-02-19T06:59:36;98240.00;;;-3.38;70.30
48926;BME280;39838;59.938;30.642;2023-02-19T07:02:04;98245.91;;;-3.38;70.28
48926;BME280;39838;59.938;30.642;2023-02-19T07:04:31;98244.38;;;-3.30;70.33
48926;BME280;39838;59.938;30.642;2023-02-19T07:06:58;98250.56;;;-3.15;69.88
48926;BME280;39838;59.938;30.642;2023-02-19T07:09:25;98259.28;;;-3.03;69.75
48926;BME280;39838;59.938;30.642;2023-02-19T07:11:54;98255.19;;;-2.93;69.38
48926;BME280;39838;59.938;30.642;2023-02-19T07:14:21;98249.44;;;-2.83;69.46
48926;BME280;39838;59.938;30.642;2023-02-19T07:16:49;98255.53;;;-2.75;68.67
48926;BME280;39838;59.938;30.642;2023-02-19T07:19:16;98253.09;;;-2.68;69.01
48926;BME280;39838;59.938;30.642;2023-02-19T07:21:43;98252.44;;;-2.57;68.47
48926;BME280;39838;59.938;30.642;2023-02-19T07:24:10;98256.72;;;-2.51;68.59
48926;BME280;39838;59.938;30.642;2023-02-19T07:26:37;98259.34;;;-2.48;68.12
48926;BME280;39838;59.938;30.642;2023-02-19T07:29:06;98261.97;;;-2.43;68.25
48926;BME280;39838;59.938;30.642;2023-02-19T07:31:33;98261.28;;;-2.32;67.87
48926;BME280;39838;59.938;30.642;2023-02-19T07:34:00;98261.38;;;-2.27;67.38
48926;BME280;39838;59.938;30.642;2023-02-19T07:36:27;98268.25;;;-2.22;67.41
48926;BME280;39838;59.938;30.642;2023-02-19T07:38:55;98258.09;;;-2.18;67.15
48926;BME280;39838;59.938;30.642;2023-02-19T07:41:23;98266.72;;;-2.09;66.95
48926;BME280;39838;59.938;30.642;2023-02-19T07:43:50;98267.59;;;-2.08;66.97
48926;BME280;39838;59.938;30.642;2023-02-19T07:46:20;98271.09;;;-2.00;66.83
48926;BME280;39838;59.938;30.642;2023-02-19T07:48:47;98273.81;;;-1.88;66.71
48926;BME280;39838;59.938;30.642;2023-02-19T07:51:17;98244.91;;;-1.90;66.47
48926;BME280;39838;59.938;30.642;2023-02-19T07:53:44;98270.72;;;-1.66;66.00
48926;BME280;39838;59.938;30.642;2023-02-19T07:56:12;98266.53;;;-1.62;65.56
48926;BME280;39838;59.938;30.642;2023-02-19T07:58:40;98264.94;;;-1.52;65.29
48926;BME280;39838;59.938;30.642;2023-02-19T08:01:09;98241.94;;;-1.60;65.67
48926;BME280;39838;59.938;30.642;2023-02-19T08:03:38;98264.22;;;-1.42;64.60
48926;BME280;39838;59.938;30.642;2023-02-19T08:06:05;98271.91;;;-1.36;64.89
48926;BME280;39838;59.938;30.642;2023-02-19T08:08:33;98265.94;;;-1.41;64.81
48926;BME280;39838;59.938;30.642;2023-02-19T08:11:00;98276.13;;;-1.41;64.57
48926;BME280;39838;59.938;30.642;2023-02-19T08:13:47;98272.66;;;-1.45;64.53
48926;BME280;39838;59.938;30.642;2023-02-19T08:16:15;98258.94;;;-1.57;64.43
48926;BME280;39838;59.938;30.642;2023-02-19T08:18:46;98267.50;;;-1.49;64.44
48926;BME280;39838;59.938;30.642;2023-02-19T08:21:14;98279.50;;;-1.42;64.51
48926;BME280;39838;59.938;30.642;2023-02-19T08:23:42;98283.78;;;-1.40;64.04
48926;BME280;39838;59.938;30.642;2023-02-19T08:26:11;98288.88;;;-1.40;64.03
48926;BME280;39838;59.938;30.642;2023-02-19T08:28:38;98291.41;;;-1.41;63.94
48926;BME280;39838;59.938;30.642;2023-02-19T08:31:06;98285.47;;;-1.42;63.88
48926;BME280;39838;59.938;30.642;2023-02-19T08:33:35;98286.38;;;-1.35;64.04
48926;BME280;39838;59.938;30.642;2023-02-19T08:36:06;98284.69;;;-1.33;63.48
48926;BME280;39838;59.938;30.642;2023-02-19T08:38:35;98285.56;;;-1.29;63.53
48926;BME280;39838;59.938;30.642;2023-02-19T08:41:05;98286.47;;;-1.26;63.67
48926;BME280;39838;59.938;30.642;2023-02-19T08:43:33;98280.59;;;-1.20;63.05
48926;BME280;39838;59.938;30.642;2023-02-19T08:46:00;98285.78;;;-1.11;63.16
48926;BME280;39838;59.938;30.642;2023-02-19T08:48:28;98293.59;;;-0.96;62.97
48926;BME280;39838;59.938;30.642;2023-02-19T08:50:56;98292.81;;;-0.89;62.72
48926;BME280;39838;59.938;30.642;2023-02-19T08:53:25;98297.25;;;-0.74;62.22
48926;BME280;39838;59.938;30.642;2023-02-19T08:55:52;98291.31;;;-0.68;62.65
48926;BME280;39838;59.938;30.642;2023-02-19T08:58:19;98298.19;;;-0.64;61.94
48926;BME280;39838;59.938;30.642;2023-02-19T09:00:47;98307.53;;;-0.65;62.19
48926;BME280;39838;59.938;30.642;2023-02-19T09:03:14;98305.75;;;-0.72;61.60
48926;BME280;39838;59.938;30.642;2023-02-19T09:05:41;98309.88;;;-0.83;61.92
48926;BME280;39838;59.938;30.642;2023-02-19T09:08:09;98309.94;;;-0.78;62.27
48926;BME280;39838;59.938;30.642;2023-02-19T09:10:38;98310.78;;;-0.78;61.77
48926;BME280;39838;59.938;30.642;2023-02-19T09:13:05;98308.31;;;-0.73;61.38
48926;BME280;39838;59.938;30.642;2023-02-19T09:15:32;98319.47;;;-0.61;61.75
48926;BME280;39838;59.938;30.642;2023-02-19T09:18:00;98319.63;;;-0.45;61.56
48926;BME280;39838;59.938;30.642;2023-02-19T09:20:27;98317.19;;;-0.32;61.14
48926;BME280;39838;59.938;30.642;2023-02-19T09:22:57;98323.22;;;-0.20;60.78
48926;BME280;39838;59.938;30.642;2023-02-19T09:25:25;98322.41;;;-0.16;60.80
48926;BME280;39838;59.938;30.642;2023-02-19T09:27:57;98321.56;;;-0.14;60.80
48926;BME280;39838;59.938;30.642;2023-02-19T09:30:24;98330.09;;;-0.12;60.43
48926;BME280;39838;59.938;30.642;2023-02-19T09:32:51;98333.47;;;-0.16;60.21
48926;BME280;39838;59.938;30.642;2023-02-19T09:35:18;98331.81;;;-0.11;60.38
48926;BME280;39838;59.938;30.642;2023-02-19T09:37:45;98332.66;;;-0.10;60.39
48926;BME280;39838;59.938;30.642;2023-02-19T09:40:12;98341.13;;;-0.17;60.01
48926;BME280;39838;59.938;30.642;2023-02-19T09:42:47;98326.66;;;-0.17;60.55
48926;BME280;39838;59.938;30.642;2023-02-19T09:45:19;98337.78;;;-0.10;60.46
48926;BME280;39838;59.938;30.642;2023-02-19T09:47:47;98342.88;;;-0.09;60.12
48926;BME280;39838;59.938;30.642;2023-02-19T09:50:18;98328.41;;;-0.13;59.94
48926;BME280;39838;59.938;30.642;2023-02-19T09:52:49;98324.06;;;-0.23;59.88
48926;BME280;39838;59.938;30.642;2023-02-19T09:55:30;98349.63;;;-0.20;59.45
48926;BME280;39838;59.938;30.642;2023-02-19T09:58:00;98346.16;;;-0.22;59.81
48926;BME280;39838;59.938;30.642;2023-02-19T10:00:32;98352.97;;;-0.24;59.89
48926;BME280;39838;59.938;30.642;2023-02-19T10:03:03;98354.66;;;-0.24;59.53
48926;BME280;39838;59.938;30.642;2023-02-19T10:05:32;98350.53;;;-0.12;59.83
48926;BME280;39838;59.938;30.642;2023-02-19T10:07:59;98349.63;;;-0.15;59.51
48926;BME280;39838;59.938;30.642;2023-02-19T10:10:32;98350.44;;;-0.21;59.17
48926;BME280;39838;59.938;30.642;2023-02-19T10:13:12;98358.88;;;-0.28;59.58
48926;BME280;39838;59.938;30.642;2023-02-19T10:15:45;98361.41;;;-0.31;59.62
48926;BME280;39838;59.938;30.642;2023-02-19T10:18:16;98360.56;;;-0.29;60.03
48926;BME280;39838;59.938;30.642;2023-02-19T10:20:44;98358.94;;;-0.20;59.65
48926;BME280;39838;59.938;30.642;2023-02-19T10:23:13;98367.38;;;-0.31;60.11
48926;BME280;39838;59.938;30.642;2023-02-19T10:25:46;98367.38;;;-0.31;60.07
48926;BME280;39838;59.938;30.642;2023-02-19T10:28:15;98358.81;;;-0.34;59.22
48926;BME280;39838;59.938;30.642;2023-02-19T10:30:49;98311.72;;;-0.70;59.33
48926;BME280;39838;59.938;30.642;2023-02-19T10:33:18;98366.34;;;-0.49;59.72
48926;BME280;39838;59.938;30.642;2023-02-19T10:35:54;98367.94;;;-0.59;59.95
48926;BME280;39838;59.938;30.642;2023-02-19T10:38:24;98367.03;;;-0.63;59.90
48926;BME280;39838;59.938;30.642;2023-02-19T10:40:58;98368.69;;;-0.68;59.55
48926;BME280;39838;59.938;30.642;2023-02-19T10:43:28;98347.28;;;-0.82;60.19
48926;BME280;39838;59.938;30.642;2023-02-19T10:46:04;98376.28;;;-0.74;60.10
48926;BME280;39838;59.938;30.642;2023-02-19T10:48:35;98345.56;;;-0.83;60.13
48926;BME280;39838;59.938;30.642;2023-02-19T10:51:05;98365.34;;;-0.64;60.07
48926;BME280;39838;59.938;30.642;2023-02-19T10:53:44;98371.28;;;-0.65;59.55
48926;BME280;39838;59.938;30.642;2023-02-19T10:56:14;98380.69;;;-0.59;59.69
48926;BME280;39838;59.938;30.642;2023-02-19T10:58:43;98380.69;;;-0.61;59.84
48926;BME280;39838;59.938;30.642;2023-02-19T11:01:21;98378.19;;;-0.55;60.00
48926;BME280;39838;59.938;30.642;2023-02-19T11:03:50;98374.91;;;-0.43;60.02
48926;BME280;39838;59.938;30.642;2023-02-19T11:06:19;98380.97;;;-0.32;59.59
48926;BME280;39838;59.938;30.642;2023-02-19T11:08:53;98389.50;;;-0.28;59.32
48926;BME280;39838;59.938;30.642;2023-02-19T11:11:32;98390.28;;;-0.37;59.45
48926;BME280;39838;59.938;30.642;2023-02-19T11:14:03;98389.47;;;-0.33;59.52
48926;BME280;39838;59.938;30.642;2023-02-19T11:16:43;98392.94;;;-0.26;59.52
48926;BME280;39838;59.938;30.642;2023-02-19T11:19:23;98392.88;;;-0.32;59.31
48926;BME280;39838;59.938;30.642;2023-02-19T11:21:51;98385.25;;;-0.29;59.34
48926;BME280;39838;59.938;30.642;2023-02-19T11:24:25;98391.25;;;-0.27;59.04
48926;BME280;39838;59.938;30.642;2023-02-19T11:26:54;98399.84;;;-0.14;59.03
48926;BME280;39838;59.938;30.642;2023-02-19T11:29:23;98405.06;;;-0.01;59.12
48926;BME280;39838;59.938;30.642;2023-02-19T11:31:55;98396.63;;;0.07;58.23
48926;BME280;39838;59.938;30.642;2023-02-19T11:34:26;98410.28;;;0.12;58.90
48926;BME280;39838;59.938;30.642;2023-02-19T11:37:13;98404.41;;;0.20;58.20
48926;BME280;39838;59.938;30.642;2023-02-19T11:39:42;98415.53;;;0.30;57.79
48926;BME280;39838;59.938;30.642;2023-02-19T11:42:20;98410.44;;;0.30;57.66
48926;BME280;39838;59.938;30.642;2023-02-19T11:45:04;98411.28;;;0.31;57.84
48926;BME280;39838;59.938;30.642;2023-02-19T11:48:17;98410.47;;;0.36;57.39
48926;BME280;39838;59.938;30.642;2023-02-19T11:51:01;98418.97;;;0.34;56.66
48926;BME280;39838;59.938;30.642;2023-02-19T11:53:31;98394.09;;;0.10;56.74
48926;BME280;39838;59.938;30.642;2023-02-19T11:56:14;98412.72;;;-0.04;57.47
48926;BME280;39838;59.938;30.642;2023-02-19T11:58:55;98420.34;;;-0.07;57.19
48926;BME280;39838;59.938;30.642;2023-02-19T12:01:34;98428.72;;;-0.20;57.71
48926;BME280;39838;59.938;30.642;2023-02-19T12:04:32;98420.19;;;-0.22;58.05
48926;BME280;39838;59.938;30.642;2023-02-19T12:07:11;98437.19;;;-0.24;58.27
48926;BME280;39838;59.938;30.642;2023-02-19T12:09:55;98433.84;;;-0.20;58.31
48926;BME280;39838;59.938;30.642;2023-02-19T12:12:51;98436.41;;;-0.15;58.53
48926;BME280;39838;59.938;30.642;2023-02-19T12:15:39;98438.19;;;-0.10;58.28
48926;BME280;39838;59.938;30.642;2023-02-19T12:18:28;98441.59;;;-0.08;58.39
48926;BME280;39838;59.938;30.642;2023-02-19T12:21:15;98433.13;;;-0.07;58.41
48926;BME280;39838;59.938;30.642;2023-02-19T12:24:01;98444.31;;;0.08;58.56
48926;BME280;39838;59.938;30.642;2023-02-19T12:26:37;98442.75;;;0.25;58.55
48926;BME280;39838;59.938;30.642;2023-02-19T12:29:22;98448.69;;;0.22;58.53
48926;BME280;39838;59.938;30.642;2023-02-19T12:32:14;98446.19;;;0.30;58.54
48926;BME280;39838;59.938;30.642;2023-02-19T12:35:07;98450.47;;;0.33;58.53
48926;BME280;39838;59.938;30.642;2023-02-19T12:37:46;98465.88;;;0.43;58.26
48926;BME280;39838;59.938;30.642;2023-02-19T12:40:25;98461.59;;;0.39;58.25
48926;BME280;39838;59.938;30.642;2023-02-19T12:43:05;98462.38;;;0.31;58.77
48926;BME280;39838;59.938;30.642;2023-02-19T12:45:39;98463.19;;;0.25;59.04
48926;BME280;39838;59.938;30.642;2023-02-19T12:48:13;98470.75;;;0.16;58.50
48926;BME280;39838;59.938;30.642;2023-02-19T12:50:47;98475.81;;;0.10;58.83
48926;BME280;39838;59.938;30.642;2023-02-19T12:53:29;98474.81;;;-0.05;58.73
48926;BME280;39838;59.938;30.642;2023-02-19T12:56:00;98470.53;;;-0.09;58.71
48926;BME280;39838;59.938;30.642;2023-02-19T12:58:36;98460.94;;;-0.28;58.76
48926;BME280;39838;59.938;30.642;2023-02-19T13:01:04;98486.47;;;-0.31;59.28
48926;BME280;39838;59.938;30.642;2023-02-19T13:03:37;98483.00;;;-0.35;59.98
48926;BME280;39838;59.938;30.642;2023-02-19T13:06:10;98442.72;;;-0.62;59.85
48926;BME280;39838;59.938;30.642;2023-02-19T13:08:45;98486.41;;;-0.34;59.80
48926;BME280;39838;59.938;30.642;2023-02-19T13:11:18;98483.84;;;-0.37;59.78
48926;BME280;39838;59.938;30.642;2023-02-19T13:13:49;98488.06;;;-0.39;59.37
48926;BME280;39838;59.938;30.642;2023-02-19T13:16:20;98492.34;;;-0.38;60.20